sensor_id;sensor_type;location;lat;lon;timestamp;temperature;humidity
5868;DHT22;2960;49.142;7.768;2022-07-23T00:01:39;24.90;57.40
5868;DHT22;2960;49.142;7.768;2022-07-23T00:04:06;24.90;57.40
5868;DHT22;2960;49.142;7.768;2022-07-23T00:06:33;24.90;57.50
5868;DHT22;2960;49.142;7.768;2022-07-23T00:09:02;24.80;57.50
5868;DHT22;2960;49.142;7.768;2022-07-23T00:11:30;24.80;57.60
5868;DHT22;2960;49.142;7.768;2022-07-23T00:13:57;24.80;57.70
5868;DHT22;2960;49.142;7.768;2022-07-23T00:16:24;24.70;57.70
5868;DHT22;2960;49.142;7.768;2022-07-23T00:18:51;24.70;57.90
5868;DHT22;2960;49.142;7.768;2022-07-23T00:21:18;24.60;57.80
5868;DHT22;2960;49.142;7.768;2022-07-23T00:23:45;24.60;57.90
5868;DHT22;2960;49.142;7.768;2022-07-23T00:26:14;24.60;58.00
5868;DHT22;2960;49.142;7.768;2022-07-23T00:28:41;24.60;58.10
5868;DHT22;2960;49.142;7.768;2022-07-23T00:31:08;24.50;58.10
5868;DHT22;2960;49.142;7.768;2022-07-23T00:33:35;24.40;58.10
5868;DHT22;2960;49.142;7.768;2022-07-23T00:36:02;24.40;58.30
5868;DHT22;2960;49.142;7.768;2022-07-23T00:38:30;24.30;58.20
5868;DHT22;2960;49.142;7.768;2022-07-23T00:40:57;24.30;58.30
5868;DHT22;2960;49.142;7.768;2022-07-23T00:43:26;24.20;58.30
5868;DHT22;2960;49.142;7.768;2022-07-23T00:45:53;24.20;58.40
5868;DHT22;2960;49.142;7.768;2022-07-23T00:48:20;24.10;58.40
5868;DHT22;2960;49.142;7.768;2022-07-23T00:50:47;24.20;58.50
5868;DHT22;2960;49.142;7.768;2022-07-23T00:53:15;24.10;58.50
5868;DHT22;2960;49.142;7.768;2022-07-23T00:55:42;24.10;58.40
5868;DHT22;2960;49.142;7.768;2022-07-23T00:58:09;24.10;58.40
5868;DHT22;2960;49.142;7.768;2022-07-23T01:00:39;24.10;58.30
5868;DHT22;2960;49.142;7.768;2022-07-23T01:03:06;24.10;58.20
5868;DHT22;2960;49.142;7.768;2022-07-23T01:05:34;24.10;58.20
5868;DHT22;2960;49.142;7.768;2022-07-23T01:08:01;24.10;58.20
5868;DHT22;2960;49.142;7.768;2022-07-23T01:10:28;24.10;58.20
5868;DHT22;2960;49.142;7.768;2022-07-23T01:12:59;24.10;58.20
5868;DHT22;2960;49.142;7.768;2022-07-23T01:15:27;24.10;58.20
5868;DHT22;2960;49.142;7.768;2022-07-23T01:17:55;24.10;58.30
5868;DHT22;2960;49.142;7.768;2022-07-23T01:20:22;24.10;58.30
5868;DHT22;2960;49.142;7.768;2022-07-23T01:22:52;24.10;58.30
5868;DHT22;2960;49.142;7.768;2022-07-23T01:25:20;24.10;58.30
5868;DHT22;2960;49.142;7.768;2022-07-23T01:27:47;24.10;58.30
5868;DHT22;2960;49.142;7.768;2022-07-23T01:30:15;24.10;58.30
5868;DHT22;2960;49.142;7.768;2022-07-23T01:32:42;24.10;58.30
5868;DHT22;2960;49.142;7.768;2022-07-23T01:35:09;24.10;58.30
5868;DHT22;2960;49.142;7.768;2022-07-23T01:37:37;24.10;58.20
5868;DHT22;2960;49.142;7.768;2022-07-23T01:40:07;24.10;58.70
5868;DHT22;2960;49.142;7.768;2022-07-23T01:42:34;24.10;58.20
5868;DHT22;2960;49.142;7.768;2022-07-23T01:45:03;24.00;58.20
5868;DHT22;2960;49.142;7.768;2022-07-23T01:47:31;24.00;58.20
5868;DHT22;2960;49.142;7.768;2022-07-23T01:49:58;24.00;58.20
5868;DHT22;2960;49.142;7.768;2022-07-23T01:52:25;24.00;58.20
5868;DHT22;2960;49.142;7.768;2022-07-23T01:54:52;24.00;58.20
5868;DHT22;2960;49.142;7.768;2022-07-23T01:57:20;23.90;58.10
5868;DHT22;2960;49.142;7.768;2022-07-23T01:59:48;23.90;58.10
5868;DHT22;2960;49.142;7.768;2022-07-23T02:02:15;23.90;58.20
5868;DHT22;2960;49.142;7.768;2022-07-23T02:04:42;23.90;58.20
5868;DHT22;2960;49.142;7.768;2022-07-23T02:07:09;23.80;58.20
5868;DHT22;2960;49.142;7.768;2022-07-23T02:09:36;23.80;58.20
5868;DHT22;2960;49.142;7.768;2022-07-23T02:12:04;23.80;58.40
5868;DHT22;2960;49.142;7.768;2022-07-23T02:14:33;23.80;58.40
5868;DHT22;2960;49.142;7.768;2022-07-23T02:17:00;23.80;58.50
5868;DHT22;2960;49.142;7.768;2022-07-23T02:19:27;23.70;58.50
5868;DHT22;2960;49.142;7.768;2022-07-23T02:21:54;23.70;58.50
5868;DHT22;2960;49.142;7.768;2022-07-23T02:24:21;23.70;58.50
5868;DHT22;2960;49.142;7.768;2022-07-23T02:26:49;23.70;58.50
5868;DHT22;2960;49.142;7.768;2022-07-23T02:29:16;23.60;58.50
5868;DHT22;2960;49.142;7.768;2022-07-23T02:31:44;23.60;58.50
5868;DHT22;2960;49.142;7.768;2022-07-23T02:34:12;23.60;58.60
5868;DHT22;2960;49.142;7.768;2022-07-23T02:36:39;23.50;59.10
5868;DHT22;2960;49.142;7.768;2022-07-23T02:39:07;23.50;58.50
5868;DHT22;2960;49.142;7.768;2022-07-23T02:41:34;23.50;58.50
5868;DHT22;2960;49.142;7.768;2022-07-23T02:44:01;23.50;58.50
5868;DHT22;2960;49.142;7.768;2022-07-23T02:46:28;23.50;58.50
5868;DHT22;2960;49.142;7.768;2022-07-23T02:48:57;23.50;58.50
5868;DHT22;2960;49.142;7.768;2022-07-23T02:51:24;23.50;58.50
5868;DHT22;2960;49.142;7.768;2022-07-23T02:53:51;23.50;58.50
5868;DHT22;2960;49.142;7.768;2022-07-23T02:56:18;23.50;58.50
5868;DHT22;2960;49.142;7.768;2022-07-23T02:58:45;23.50;58.50
5868;DHT22;2960;49.142;7.768;2022-07-23T03:01:12;23.50;58.50
5868;DHT22;2960;49.142;7.768;2022-07-23T03:03:39;23.50;58.40
5868;DHT22;2960;49.142;7.768;2022-07-23T03:06:08;23.50;58.40
5868;DHT22;2960;49.142;7.768;2022-07-23T03:08:35;23.50;58.50
5868;DHT22;2960;49.142;7.768;2022-07-23T03:11:02;23.40;58.40
5868;DHT22;2960;49.142;7.768;2022-07-23T03:13:29;23.40;58.50
5868;DHT22;2960;49.142;7.768;2022-07-23T03:15:56;23.40;58.50
5868;DHT22;2960;49.142;7.768;2022-07-23T03:18:23;23.40;58.50
5868;DHT22;2960;49.142;7.768;2022-07-23T03:20:50;23.40;58.60
5868;DHT22;2960;49.142;7.768;2022-07-23T03:23:19;23.40;58.60
5868;DHT22;2960;49.142;7.768;2022-07-23T03:25:46;23.40;58.70
5868;DHT22;2960;49.142;7.768;2022-07-23T03:28:14;23.30;58.70
5868;DHT22;2960;49.142;7.768;2022-07-23T03:30:41;23.30;58.80
5868;DHT22;2960;49.142;7.768;2022-07-23T03:33:08;23.20;58.80
5868;DHT22;2960;49.142;7.768;2022-07-23T03:35:35;23.20;59.60
5868;DHT22;2960;49.142;7.768;2022-07-23T03:38:03;23.20;59.20
5868;DHT22;2960;49.142;7.768;2022-07-23T03:40:31;23.20;59.20
5868;DHT22;2960;49.142;7.768;2022-07-23T03:42:58;23.20;59.30
5868;DHT22;2960;49.142;7.768;2022-07-23T03:45:25;23.20;59.40
5868;DHT22;2960;49.142;7.768;2022-07-23T03:47:53;23.10;59.50
5868;DHT22;2960;49.142;7.768;2022-07-23T03:50:21;23.10;59.70
5868;DHT22;2960;49.142;7.768;2022-07-23T03:52:48;23.10;59.90
5868;DHT22;2960;49.142;7.768;2022-07-23T03:55:15;23.10;60.00
5868;DHT22;2960;49.142;7.768;2022-07-23T03:57:44;23.10;60.20
5868;DHT22;2960;49.142;7.768;2022-07-23T04:00:12;23.00;60.20
5868;DHT22;2960;49.142;7.768;2022-07-23T04:02:40;23.00;60.40
5868;DHT22;2960;49.142;7.768;2022-07-23T04:05:08;23.00;60.60
5868;DHT22;2960;49.142;7.768;2022-07-23T04:07:35;23.00;60.80
5868;DHT22;2960;49.142;7.768;2022-07-23T04:10:03;23.00;60.80
5868;DHT22;2960;49.142;7.768;2022-07-23T04:12:30;23.00;60.90
5868;DHT22;2960;49.142;7.768;2022-07-23T04:14:59;23.00;61.10
5868;DHT22;2960;49.142;7.768;2022-07-23T04:17:26;22.90;61.10
5868;DHT22;2960;49.142;7.768;2022-07-23T04:19:53;22.90;61.30
5868;DHT22;2960;49.142;7.768;2022-07-23T04:22:20;22.90;61.50
5868;DHT22;2960;49.142;7.768;2022-07-23T04:24:48;22.90;61.60
5868;DHT22;2960;49.142;7.768;2022-07-23T04:27:16;22.90;61.60
5868;DHT22;2960;49.142;7.768;2022-07-23T04:29:43;22.90;61.70
5868;DHT22;2960;49.142;7.768;2022-07-23T04:32:11;22.90;61.80
5868;DHT22;2960;49.142;7.768;2022-07-23T04:34:38;22.90;61.90
5868;DHT22;2960;49.142;7.768;2022-07-23T04:37:05;22.80;62.00
5868;DHT22;2960;49.142;7.768;2022-07-23T04:39:33;22.80;62.00
5868;DHT22;2960;49.142;7.768;2022-07-23T04:42:00;22.80;62.10
5868;DHT22;2960;49.142;7.768;2022-07-23T04:44:27;22.80;62.10
5868;DHT22;2960;49.142;7.768;2022-07-23T04:46:54;22.80;62.20
5868;DHT22;2960;49.142;7.768;2022-07-23T04:49:22;22.80;62.30
5868;DHT22;2960;49.142;7.768;2022-07-23T04:51:50;22.80;62.50
5868;DHT22;2960;49.142;7.768;2022-07-23T04:54:18;22.80;62.60
5868;DHT22;2960;49.142;7.768;2022-07-23T04:56:45;22.80;62.60
5868;DHT22;2960;49.142;7.768;2022-07-23T04:59:12;22.80;62.70
5868;DHT22;2960;49.142;7.768;2022-07-23T05:01:39;22.80;62.80
5868;DHT22;2960;49.142;7.768;2022-07-23T05:04:07;22.80;62.90
5868;DHT22;2960;49.142;7.768;2022-07-23T05:06:35;22.80;63.00
5868;DHT22;2960;49.142;7.768;2022-07-23T05:09:03;22.80;63.20
5868;DHT22;2960;49.142;7.768;2022-07-23T05:11:30;22.70;63.30
5868;DHT22;2960;49.142;7.768;2022-07-23T05:13:57;22.70;63.50
5868;DHT22;2960;49.142;7.768;2022-07-23T05:16:24;22.60;63.60
5868;DHT22;2960;49.142;7.768;2022-07-23T05:18:51;22.60;63.80
5868;DHT22;2960;49.142;7.768;2022-07-23T05:21:19;22.60;64.10
5868;DHT22;2960;49.142;7.768;2022-07-23T05:23:48;22.50;64.10
5868;DHT22;2960;49.142;7.768;2022-07-23T05:26:15;22.50;64.30
5868;DHT22;2960;49.142;7.768;2022-07-23T05:28:42;22.50;64.50
5868;DHT22;2960;49.142;7.768;2022-07-23T05:31:09;22.50;64.50
5868;DHT22;2960;49.142;7.768;2022-07-23T05:33:36;22.50;64.60
5868;DHT22;2960;49.142;7.768;2022-07-23T05:36:04;22.50;64.60
5868;DHT22;2960;49.142;7.768;2022-07-23T05:38:32;22.50;64.70
5868;DHT22;2960;49.142;7.768;2022-07-23T05:41:01;22.50;64.70
5868;DHT22;2960;49.142;7.768;2022-07-23T05:43:28;22.50;64.70
5868;DHT22;2960;49.142;7.768;2022-07-23T05:45:55;22.50;64.80
5868;DHT22;2960;49.142;7.768;2022-07-23T05:48:22;22.50;64.80
5868;DHT22;2960;49.142;7.768;2022-07-23T05:50:50;22.50;64.80
5868;DHT22;2960;49.142;7.768;2022-07-23T05:53:17;22.50;64.90
5868;DHT22;2960;49.142;7.768;2022-07-23T05:55:44;22.50;64.90
5868;DHT22;2960;49.142;7.768;2022-07-23T05:58:12;22.50;64.90
5868;DHT22;2960;49.142;7.768;2022-07-23T06:00:40;22.50;65.00
5868;DHT22;2960;49.142;7.768;2022-07-23T06:03:07;22.60;65.10
5868;DHT22;2960;49.142;7.768;2022-07-23T06:05:34;22.60;65.90
5868;DHT22;2960;49.142;7.768;2022-07-23T06:08:01;22.60;65.30
5868;DHT22;2960;49.142;7.768;2022-07-23T06:10:29;22.60;65.30
5868;DHT22;2960;49.142;7.768;2022-07-23T06:12:56;22.60;65.40
5868;DHT22;2960;49.142;7.768;2022-07-23T06:15:24;22.70;65.50
5868;DHT22;2960;49.142;7.768;2022-07-23T06:17:52;22.70;65.60
5868;DHT22;2960;49.142;7.768;2022-07-23T06:20:19;22.70;65.80
5868;DHT22;2960;49.142;7.768;2022-07-23T06:22:46;22.70;65.90
5868;DHT22;2960;49.142;7.768;2022-07-23T06:25:13;22.80;66.20
5868;DHT22;2960;49.142;7.768;2022-07-23T06:27:42;22.80;66.20
5868;DHT22;2960;49.142;7.768;2022-07-23T06:30:10;22.80;66.30
5868;DHT22;2960;49.142;7.768;2022-07-23T06:32:39;22.90;66.50
5868;DHT22;2960;49.142;7.768;2022-07-23T06:35:07;22.90;66.50
5868;DHT22;2960;49.142;7.768;2022-07-23T06:37:34;23.00;66.60
5868;DHT22;2960;49.142;7.768;2022-07-23T06:40:02;23.00;66.60
5868;DHT22;2960;49.142;7.768;2022-07-23T06:42:29;23.10;66.60
5868;DHT22;2960;49.142;7.768;2022-07-23T06:44:57;23.10;66.60
5868;DHT22;2960;49.142;7.768;2022-07-23T06:47:24;23.20;66.50
5868;DHT22;2960;49.142;7.768;2022-07-23T06:49:52;23.20;66.40
5868;DHT22;2960;49.142;7.768;2022-07-23T06:52:19;23.20;66.40
5868;DHT22;2960;49.142;7.768;2022-07-23T06:54:46;23.30;66.40
5868;DHT22;2960;49.142;7.768;2022-07-23T06:57:14;23.30;66.40
5868;DHT22;2960;49.142;7.768;2022-07-23T06:59:41;23.40;66.50
5868;DHT22;2960;49.142;7.768;2022-07-23T07:02:09;23.40;66.50
5868;DHT22;2960;49.142;7.768;2022-07-23T07:04:36;23.40;66.50
5868;DHT22;2960;49.142;7.768;2022-07-23T07:07:05;23.50;66.50
5868;DHT22;2960;49.142;7.768;2022-07-23T07:09:32;23.60;66.60
5868;DHT22;2960;49.142;7.768;2022-07-23T07:11:59;23.60;66.50
5868;DHT22;2960;49.142;7.768;2022-07-23T07:14:27;23.70;66.40
5868;DHT22;2960;49.142;7.768;2022-07-23T07:16:54;23.80;66.40
5868;DHT22;2960;49.142;7.768;2022-07-23T07:19:21;23.80;66.30
5868;DHT22;2960;49.142;7.768;2022-07-23T07:21:48;23.90;66.50
5868;DHT22;2960;49.142;7.768;2022-07-23T07:24:17;24.00;66.40
5868;DHT22;2960;49.142;7.768;2022-07-23T07:26:44;24.20;66.50
5868;DHT22;2960;49.142;7.768;2022-07-23T07:29:12;24.30;66.40
5868;DHT22;2960;49.142;7.768;2022-07-23T07:31:39;24.50;66.40
5868;DHT22;2960;49.142;7.768;2022-07-23T07:34:06;24.60;66.30
5868;DHT22;2960;49.142;7.768;2022-07-23T07:36:33;24.70;66.10
5868;DHT22;2960;49.142;7.768;2022-07-23T07:39:02;24.80;65.90
5868;DHT22;2960;49.142;7.768;2022-07-23T07:41:32;24.90;65.80
5868;DHT22;2960;49.142;7.768;2022-07-23T07:43:59;24.90;65.60
5868;DHT22;2960;49.142;7.768;2022-07-23T07:46:26;24.90;65.50
5868;DHT22;2960;49.142;7.768;2022-07-23T07:48:54;25.00;65.50
5868;DHT22;2960;49.142;7.768;2022-07-23T07:51:21;24.90;65.50
5868;DHT22;2960;49.142;7.768;2022-07-23T07:53:48;24.90;66.00
5868;DHT22;2960;49.142;7.768;2022-07-23T07:56:15;24.90;65.60
5868;DHT22;2960;49.142;7.768;2022-07-23T07:58:43;24.80;66.40
5868;DHT22;2960;49.142;7.768;2022-07-23T08:01:10;24.80;65.70
5868;DHT22;2960;49.142;7.768;2022-07-23T08:03:38;24.80;65.80
5868;DHT22;2960;49.142;7.768;2022-07-23T08:06:05;24.70;65.80
5868;DHT22;2960;49.142;7.768;2022-07-23T08:08:33;24.70;65.90
5868;DHT22;2960;49.142;7.768;2022-07-23T08:11:00;24.70;66.20
5868;DHT22;2960;49.142;7.768;2022-07-23T08:13:27;24.70;65.90
5868;DHT22;2960;49.142;7.768;2022-07-23T08:15:55;24.80;65.90
5868;DHT22;2960;49.142;7.768;2022-07-23T08:18:22;24.80;65.90
5868;DHT22;2960;49.142;7.768;2022-07-23T08:20:50;24.80;65.80
5868;DHT22;2960;49.142;7.768;2022-07-23T08:23:17;24.90;65.80
5868;DHT22;2960;49.142;7.768;2022-07-23T08:25:46;25.10;65.70
5868;DHT22;2960;49.142;7.768;2022-07-23T08:28:14;25.20;65.50
5868;DHT22;2960;49.142;7.768;2022-07-23T08:30:43;25.30;65.30
5868;DHT22;2960;49.142;7.768;2022-07-23T08:33:13;25.50;65.20
5868;DHT22;2960;49.142;7.768;2022-07-23T08:35:43;25.60;64.80
5868;DHT22;2960;49.142;7.768;2022-07-23T08:38:14;25.80;64.60
5868;DHT22;2960;49.142;7.768;2022-07-23T08:40:43;25.90;64.30
5868;DHT22;2960;49.142;7.768;2022-07-23T08:43:15;26.10;64.10
5868;DHT22;2960;49.142;7.768;2022-07-23T08:45:47;26.30;63.90
5868;DHT22;2960;49.142;7.768;2022-07-23T08:48:17;26.40;63.50
5868;DHT22;2960;49.142;7.768;2022-07-23T08:50:47;26.60;63.20
5868;DHT22;2960;49.142;7.768;2022-07-23T08:53:16;26.70;62.80
5868;DHT22;2960;49.142;7.768;2022-07-23T08:55:45;26.80;62.50
5868;DHT22;2960;49.142;7.768;2022-07-23T08:58:12;27.00;62.30
5868;DHT22;2960;49.142;7.768;2022-07-23T09:00:40;27.10;62.00
5868;DHT22;2960;49.142;7.768;2022-07-23T09:03:13;27.20;61.70
5868;DHT22;2960;49.142;7.768;2022-07-23T09:05:43;27.40;61.60
5868;DHT22;2960;49.142;7.768;2022-07-23T09:08:13;27.50;61.30
5868;DHT22;2960;49.142;7.768;2022-07-23T09:10:46;27.60;61.00
5868;DHT22;2960;49.142;7.768;2022-07-23T09:13:30;27.70;60.60
5868;DHT22;2960;49.142;7.768;2022-07-23T09:16:02;27.80;60.10
5868;DHT22;2960;49.142;7.768;2022-07-23T09:18:34;27.90;59.80
5868;DHT22;2960;49.142;7.768;2022-07-23T09:21:22;27.90;59.50
5868;DHT22;2960;49.142;7.768;2022-07-23T09:23:56;28.00;59.00
5868;DHT22;2960;49.142;7.768;2022-07-23T09:26:30;28.00;58.90
5868;DHT22;2960;49.142;7.768;2022-07-23T09:29:04;28.00;58.80
5868;DHT22;2960;49.142;7.768;2022-07-23T09:31:42;28.00;58.70
5868;DHT22;2960;49.142;7.768;2022-07-23T09:34:17;28.10;58.60
5868;DHT22;2960;49.142;7.768;2022-07-23T09:36:47;28.20;59.00
5868;DHT22;2960;49.142;7.768;2022-07-23T09:39:21;28.30;58.30
5868;DHT22;2960;49.142;7.768;2022-07-23T09:41:51;28.50;58.00
5868;DHT22;2960;49.142;7.768;2022-07-23T09:44:20;28.60;57.60
5868;DHT22;2960;49.142;7.768;2022-07-23T09:46:48;28.80;57.20
5868;DHT22;2960;49.142;7.768;2022-07-23T09:49:20;28.90;57.10
5868;DHT22;2960;49.142;7.768;2022-07-23T09:51:51;29.00;56.80
5868;DHT22;2960;49.142;7.768;2022-07-23T09:54:26;29.10;56.60
5868;DHT22;2960;49.142;7.768;2022-07-23T09:56:59;29.20;56.30
5868;DHT22;2960;49.142;7.768;2022-07-23T09:59:31;29.20;55.60
5868;DHT22;2960;49.142;7.768;2022-07-23T10:02:00;29.30;55.60
5868;DHT22;2960;49.142;7.768;2022-07-23T10:04:29;29.30;55.60
5868;DHT22;2960;49.142;7.768;2022-07-23T10:06:58;29.50;55.40
5868;DHT22;2960;49.142;7.768;2022-07-23T10:09:28;29.60;55.10
5868;DHT22;2960;49.142;7.768;2022-07-23T10:11:58;29.70;54.60
5868;DHT22;2960;49.142;7.768;2022-07-23T10:14:39;29.70;54.40
5868;DHT22;2960;49.142;7.768;2022-07-23T10:17:06;29.70;54.20
5868;DHT22;2960;49.142;7.768;2022-07-23T10:19:35;29.70;54.20
5868;DHT22;2960;49.142;7.768;2022-07-23T10:22:06;29.70;54.20
5868;DHT22;2960;49.142;7.768;2022-07-23T10:24:50;29.70;54.10
5868;DHT22;2960;49.142;7.768;2022-07-23T10:30:32;29.70;54.10
5868;DHT22;2960;49.142;7.768;2022-07-23T10:33:17;29.70;53.80
5868;DHT22;2960;49.142;7.768;2022-07-23T10:35:57;29.80;53.50
5868;DHT22;2960;49.142;7.768;2022-07-23T10:38:32;29.80;53.20
5868;DHT22;2960;49.142;7.768;2022-07-23T10:41:03;29.90;52.80
5868;DHT22;2960;49.142;7.768;2022-07-23T10:43:32;29.90;52.20
5868;DHT22;2960;49.142;7.768;2022-07-23T10:46:23;29.90;51.80
5868;DHT22;2960;49.142;7.768;2022-07-23T10:49:22;29.90;51.90
5868;DHT22;2960;49.142;7.768;2022-07-23T10:52:17;29.90;52.00
5868;DHT22;2960;49.142;7.768;2022-07-23T10:54:50;29.90;51.80
5868;DHT22;2960;49.142;7.768;2022-07-23T10:57:18;30.00;51.60
5868;DHT22;2960;49.142;7.768;2022-07-23T11:00:16;30.10;51.00
5868;DHT22;2960;49.142;7.768;2022-07-23T11:02:48;30.10;50.80
5868;DHT22;2960;49.142;7.768;2022-07-23T11:05:17;30.20;50.70
5868;DHT22;2960;49.142;7.768;2022-07-23T11:08:13;30.20;50.70
5868;DHT22;2960;49.142;7.768;2022-07-23T11:10:44;30.40;50.60
5868;DHT22;2960;49.142;7.768;2022-07-23T11:13:36;30.50;49.90
5868;DHT22;2960;49.142;7.768;2022-07-23T11:16:23;30.50;49.10
5868;DHT22;2960;49.142;7.768;2022-07-23T11:19:04;30.40;49.10
5868;DHT22;2960;49.142;7.768;2022-07-23T11:21:50;30.40;49.20
5868;DHT22;2960;49.142;7.768;2022-07-23T11:24:25;30.40;49.00
5868;DHT22;2960;49.142;7.768;2022-07-23T11:26:58;30.40;49.00
5868;DHT22;2960;49.142;7.768;2022-07-23T11:29:44;30.40;49.00
5868;DHT22;2960;49.142;7.768;2022-07-23T11:32:31;30.60;48.90
5868;DHT22;2960;49.142;7.768;2022-07-23T11:35:18;30.70;48.80
5868;DHT22;2960;49.142;7.768;2022-07-23T11:37:46;30.80;48.50
5868;DHT22;2960;49.142;7.768;2022-07-23T11:40:16;30.90;48.40
5868;DHT22;2960;49.142;7.768;2022-07-23T11:42:52;31.00;47.80
5868;DHT22;2960;49.142;7.768;2022-07-23T11:45:21;31.00;47.40
5868;DHT22;2960;49.142;7.768;2022-07-23T11:47:49;31.00;47.50
5868;DHT22;2960;49.142;7.768;2022-07-23T11:50:16;31.10;47.40
5868;DHT22;2960;49.142;7.768;2022-07-23T11:52:49;31.20;47.20
5868;DHT22;2960;49.142;7.768;2022-07-23T11:55:18;31.20;46.90
5868;DHT22;2960;49.142;7.768;2022-07-23T11:57:45;31.30;47.00
5868;DHT22;2960;49.142;7.768;2022-07-23T12:00:15;31.30;46.40
5868;DHT22;2960;49.142;7.768;2022-07-23T12:02:46;31.20;46.60
5868;DHT22;2960;49.142;7.768;2022-07-23T12:05:16;31.20;46.60
5868;DHT22;2960;49.142;7.768;2022-07-23T12:07:45;31.20;46.70
5868;DHT22;2960;49.142;7.768;2022-07-23T12:10:18;31.20;46.70
5868;DHT22;2960;49.142;7.768;2022-07-23T12:12:47;31.30;45.70
5868;DHT22;2960;49.142;7.768;2022-07-23T12:15:17;31.20;45.80
5868;DHT22;2960;49.142;7.768;2022-07-23T12:17:47;31.30;45.90
5868;DHT22;2960;49.142;7.768;2022-07-23T12:20:17;31.30;45.90
5868;DHT22;2960;49.142;7.768;2022-07-23T12:22:47;31.30;45.60
5868;DHT22;2960;49.142;7.768;2022-07-23T12:25:16;31.20;45.40
5868;DHT22;2960;49.142;7.768;2022-07-23T12:27:46;31.10;45.40
5868;DHT22;2960;49.142;7.768;2022-07-23T12:30:27;31.10;45.60
5868;DHT22;2960;49.142;7.768;2022-07-23T12:32:57;31.10;45.70
5868;DHT22;2960;49.142;7.768;2022-07-23T12:35:31;31.10;45.70
5868;DHT22;2960;49.142;7.768;2022-07-23T12:38:01;31.10;45.60
5868;DHT22;2960;49.142;7.768;2022-07-23T12:40:33;31.10;45.50
5868;DHT22;2960;49.142;7.768;2022-07-23T12:43:04;31.10;45.60
5868;DHT22;2960;49.142;7.768;2022-07-23T12:45:44;31.10;45.60
5868;DHT22;2960;49.142;7.768;2022-07-23T12:48:18;31.20;45.70
5868;DHT22;2960;49.142;7.768;2022-07-23T12:50:55;31.20;45.70
5868;DHT22;2960;49.142;7.768;2022-07-23T12:53:26;31.30;45.30
5868;DHT22;2960;49.142;7.768;2022-07-23T12:56:07;31.30;45.80
5868;DHT22;2960;49.142;7.768;2022-07-23T12:58:44;31.20;45.00
5868;DHT22;2960;49.142;7.768;2022-07-23T13:01:23;31.10;45.10
5868;DHT22;2960;49.142;7.768;2022-07-23T13:03:57;31.20;45.00
5868;DHT22;2960;49.142;7.768;2022-07-23T13:06:26;31.10;44.80
5868;DHT22;2960;49.142;7.768;2022-07-23T13:08:54;31.10;45.00
5868;DHT22;2960;49.142;7.768;2022-07-23T13:11:23;31.20;44.90
5868;DHT22;2960;49.142;7.768;2022-07-23T13:13:50;31.20;44.90
5868;DHT22;2960;49.142;7.768;2022-07-23T13:16:17;31.30;44.90
5868;DHT22;2960;49.142;7.768;2022-07-23T13:18:45;31.40;44.70
5868;DHT22;2960;49.142;7.768;2022-07-23T13:21:12;31.40;44.40
5868;DHT22;2960;49.142;7.768;2022-07-23T13:23:39;31.50;44.40
5868;DHT22;2960;49.142;7.768;2022-07-23T13:26:06;31.50;44.10
5868;DHT22;2960;49.142;7.768;2022-07-23T13:28:34;31.50;43.60
5868;DHT22;2960;49.142;7.768;2022-07-23T13:31:01;31.40;43.60
5868;DHT22;2960;49.142;7.768;2022-07-23T13:33:29;31.40;43.80
5868;DHT22;2960;49.142;7.768;2022-07-23T13:35:56;31.40;43.90
5868;DHT22;2960;49.142;7.768;2022-07-23T13:38:23;31.50;43.70
5868;DHT22;2960;49.142;7.768;2022-07-23T13:40:51;31.50;43.70
5868;DHT22;2960;49.142;7.768;2022-07-23T13:43:21;31.50;43.70
5868;DHT22;2960;49.142;7.768;2022-07-23T13:45:51;31.60;43.80
5868;DHT22;2960;49.142;7.768;2022-07-23T13:48:19;31.60;43.70
5868;DHT22;2960;49.142;7.768;2022-07-23T13:50:47;31.60;43.20
5868;DHT22;2960;49.142;7.768;2022-07-23T13:53:17;31.60;43.20
5868;DHT22;2960;49.142;7.768;2022-07-23T13:55:45;31.60;43.10
5868;DHT22;2960;49.142;7.768;2022-07-23T13:58:13;31.50;42.70
5868;DHT22;2960;49.142;7.768;2022-07-23T14:00:43;31.40;42.50
5868;DHT22;2960;49.142;7.768;2022-07-23T14:03:13;31.30;42.70
5868;DHT22;2960;49.142;7.768;2022-07-23T14:05:41;31.20;42.40
5868;DHT22;2960;49.142;7.768;2022-07-23T14:08:09;31.10;42.50
5868;DHT22;2960;49.142;7.768;2022-07-23T14:10:37;31.10;42.30
5868;DHT22;2960;49.142;7.768;2022-07-23T14:13:04;31.00;42.20
5868;DHT22;2960;49.142;7.768;2022-07-23T14:15:32;31.00;42.60
5868;DHT22;2960;49.142;7.768;2022-07-23T14:17:59;31.00;42.10
5868;DHT22;2960;49.142;7.768;2022-07-23T14:20:28;31.00;42.10
5868;DHT22;2960;49.142;7.768;2022-07-23T14:22:55;31.10;42.10
5868;DHT22;2960;49.142;7.768;2022-07-23T14:25:26;31.10;41.90
5868;DHT22;2960;49.142;7.768;2022-07-23T14:27:53;31.10;41.60
5868;DHT22;2960;49.142;7.768;2022-07-23T14:30:20;31.10;41.50
5868;DHT22;2960;49.142;7.768;2022-07-23T14:32:49;31.20;41.10
5868;DHT22;2960;49.142;7.768;2022-07-23T14:35:17;31.10;41.20
5868;DHT22;2960;49.142;7.768;2022-07-23T14:37:46;31.10;41.30
5868;DHT22;2960;49.142;7.768;2022-07-23T14:40:13;31.10;41.50
5868;DHT22;2960;49.142;7.768;2022-07-23T14:42:40;31.00;41.20
5868;DHT22;2960;49.142;7.768;2022-07-23T14:45:07;31.00;41.10
5868;DHT22;2960;49.142;7.768;2022-07-23T14:47:35;30.90;41.30
5868;DHT22;2960;49.142;7.768;2022-07-23T14:50:04;30.90;41.50
5868;DHT22;2960;49.142;7.768;2022-07-23T14:52:32;30.90;41.60
5868;DHT22;2960;49.142;7.768;2022-07-23T14:55:01;30.90;41.50
5868;DHT22;2960;49.142;7.768;2022-07-23T14:57:28;30.90;41.30
5868;DHT22;2960;49.142;7.768;2022-07-23T14:59:55;30.90;41.10
5868;DHT22;2960;49.142;7.768;2022-07-23T15:02:22;31.00;41.00
5868;DHT22;2960;49.142;7.768;2022-07-23T15:04:49;31.00;40.70
5868;DHT22;2960;49.142;7.768;2022-07-23T15:07:16;31.00;40.50
5868;DHT22;2960;49.142;7.768;2022-07-23T15:09:43;31.00;40.50
5868;DHT22;2960;49.142;7.768;2022-07-23T15:12:12;31.00;40.40
5868;DHT22;2960;49.142;7.768;2022-07-23T15:14:39;31.00;40.40
5868;DHT22;2960;49.142;7.768;2022-07-23T15:17:06;30.90;40.40
5868;DHT22;2960;49.142;7.768;2022-07-23T15:19:33;30.90;40.60
5868;DHT22;2960;49.142;7.768;2022-07-23T15:22:00;30.90;40.80
5868;DHT22;2960;49.142;7.768;2022-07-23T15:24:29;30.80;40.80
5868;DHT22;2960;49.142;7.768;2022-07-23T15:26:57;30.80;40.80
5868;DHT22;2960;49.142;7.768;2022-07-23T15:29:25;30.80;40.80
5868;DHT22;2960;49.142;7.768;2022-07-23T15:31:52;30.80;41.40
5868;DHT22;2960;49.142;7.768;2022-07-23T15:34:20;30.80;40.80
5868;DHT22;2960;49.142;7.768;2022-07-23T15:36:47;30.70;40.80
5868;DHT22;2960;49.142;7.768;2022-07-23T15:39:14;30.70;41.10
5868;DHT22;2960;49.142;7.768;2022-07-23T15:41:41;30.70;41.10
5868;DHT22;2960;49.142;7.768;2022-07-23T15:44:08;30.70;41.10
5868;DHT22;2960;49.142;7.768;2022-07-23T15:46:37;30.70;41.10
5868;DHT22;2960;49.142;7.768;2022-07-23T15:49:04;30.60;41.10
5868;DHT22;2960;49.142;7.768;2022-07-23T15:51:31;30.50;41.20
5868;DHT22;2960;49.142;7.768;2022-07-23T15:53:58;30.50;41.20
5868;DHT22;2960;49.142;7.768;2022-07-23T15:56:25;30.50;41.30
5868;DHT22;2960;49.142;7.768;2022-07-23T15:58:53;30.50;41.30
5868;DHT22;2960;49.142;7.768;2022-07-23T16:01:20;30.50;41.10
5868;DHT22;2960;49.142;7.768;2022-07-23T16:03:48;30.50;41.10
5868;DHT22;2960;49.142;7.768;2022-07-23T16:06:15;30.50;41.30
5868;DHT22;2960;49.142;7.768;2022-07-23T16:08:42;30.40;41.30
5868;DHT22;2960;49.142;7.768;2022-07-23T16:11:09;30.40;41.40
5868;DHT22;2960;49.142;7.768;2022-07-23T16:13:37;30.40;41.30
5868;DHT22;2960;49.142;7.768;2022-07-23T16:16:04;30.40;41.00
5868;DHT22;2960;49.142;7.768;2022-07-23T16:18:34;30.30;41.10